Time;durP1;ratioP1;P1;durP2;ratioP2;P2;SDS_P1;SDS_P2;PMS_P1;PMS_P2;Temp;Humidity;BMP_temperature;BMP_pressure;BME280_temperature;BME280_humidity;BME280_pressure;Samples;Min_cycle;Max_cycle;Signal;HPM_P1;HPM_P2
2021/10/03 00:02:24;;;;;;;;;4.00;2.00;;;;;20.35;58.26;99306.66;5060412;28;45345;-55
2021/10/03 00:04:53;;;;;;;;;3.00;2.33;;;;;20.34;58.36;99311.16;5060840;28;45343;-53
2021/10/03 00:07:21;;;;;;;;;2.33;2.33;;;;;20.33;58.31;99305.88;5060743;28;45203;-53
2021/10/03 00:09:48;;;;;;;;;4.00;3.00;;;;;20.33;58.38;99290.72;5060714;28;45533;-47
2021/10/03 00:12:14;;;;;;;;;3.00;1.00;;;;;20.33;58.21;99292.53;5060623;28;45893;-52
2021/10/03 00:14:39;;;;;;;;;2.00;2.00;;;;;20.33;58.27;99287.19;5060452;28;45332;-53
2021/10/03 00:17:05;;;;;;;;;2.00;2.00;;;;;20.32;58.36;99293.47;5060793;28;45333;-49
2021/10/03 00:19:30;;;;;;;;;2.00;2.00;;;;;20.32;58.31;99297.03;5060268;28;47170;-55
2021/10/03 00:21:57;;;;;;;;;3.00;3.00;;;;;20.31;58.78;99281.06;5060498;28;45412;-47
2021/10/03 00:24:23;;;;;;;;;3.00;2.00;;;;;20.31;58.43;99278.41;5060549;28;45363;-50
2021/10/03 00:26:49;;;;;;;;;3.33;2.33;;;;;20.31;58.32;99281.94;5059266;28;45422;-51
2021/10/03 00:29:15;;;;;;;;;2.00;2.00;;;;;20.30;58.24;99258.00;5060213;28;47495;-49
2021/10/03 00:31:40;;;;;;;;;2.67;2.67;;;;;20.31;58.30;99265.94;5060092;28;45207;-51
2021/10/03 00:34:05;;;;;;;;;2.00;2.00;;;;;20.30;58.24;99266.00;5060493;28;45751;-52
2021/10/03 00:36:31;;;;;;;;;4.00;3.00;;;;;20.29;58.19;99272.25;5060570;28;45177;-53
2021/10/03 00:38:56;;;;;;;;;2.00;2.00;;;;;20.30;58.29;99258.88;5075732;28;46222;-57
2021/10/03 00:41:22;;;;;;;;;1.67;1.67;;;;;20.29;58.14;99264.25;5060133;28;45441;-51
2021/10/03 00:43:47;;;;;;;;;2.00;2.00;;;;;20.29;58.56;99256.25;5060178;28;45305;-50
2021/10/03 00:46:14;;;;;;;;;3.33;3.00;;;;;20.29;58.14;99254.47;5060451;28;45400;-56
2021/10/03 00:48:39;;;;;;;;;3.00;3.00;;;;;20.29;58.22;99253.59;5059825;28;46444;-51
2021/10/03 00:51:04;;;;;;;;;2.00;2.00;;;;;20.29;58.04;99242.91;5059998;28;45458;-58
2021/10/03 00:53:30;;;;;;;;;2.00;2.00;;;;;20.28;58.32;99250.06;5060021;28;45227;-58
2021/10/03 00:55:56;;;;;;;;;2.00;2.00;;;;;20.29;58.37;99250.91;5060255;28;45493;-56
2021/10/03 00:58:22;;;;;;;;;3.00;2.00;;;;;20.28;58.39;99250.06;5059788;28;47336;-64
2021/10/03 01:00:47;;;;;;;;;2.00;2.00;;;;;20.28;58.38;99241.19;5059743;28;45322;-63
2021/10/03 01:03:13;;;;;;;;;3.00;3.00;;;;;20.28;58.40;99241.19;5058780;28;45303;-55
2021/10/03 01:05:39;;;;;;;;;1.67;1.67;;;;;20.28;58.32;99241.19;5060037;28;45218;-63
2021/10/03 01:08:05;;;;;;;;;4.00;2.00;;;;;20.27;58.38;99237.66;5059633;28;47150;-52
2021/10/03 01:10:32;;;;;;;;;2.00;2.00;;;;;20.27;58.19;99235.00;5059496;28;45177;-56
2021/10/03 01:13:05;;;;;;;;;3.67;3.67;;;;;20.28;58.31;99230.53;5059512;28;45287;-59
2021/10/03 01:15:37;;;;;;;;;2.33;2.00;;;;;20.27;58.20;99226.97;5059878;28;45447;-57
2021/10/03 01:18:04;;;;;;;;;2.00;2.00;;;;;20.27;58.29;99218.09;5059238;28;46238;-58
2021/10/03 01:20:31;;;;;;;;;3.00;3.00;;;;;20.25;58.33;99219.06;5059475;28;45443;-58
2021/10/03 01:22:56;;;;;;;;;3.00;2.00;;;;;20.27;58.28;99208.31;5059487;28;45292;-51
2021/10/03 01:25:22;;;;;;;;;4.00;2.67;;;;;20.27;58.33;99210.97;5059532;28;45400;-56
2021/10/03 01:27:49;;;;;;;;;2.00;2.00;;;;;20.25;58.28;99208.38;5059262;28;46208;-51
2021/10/03 01:30:17;;;;;;;;;3.33;1.00;;;;;20.27;58.33;99196.75;5059318;28;45420;-58
2021/10/03 01:32:43;;;;;;;;;3.00;2.00;;;;;20.27;58.17;99196.75;5059150;28;45287;-58
2021/10/03 01:35:10;;;;;;;;;2.33;2.33;;;;;20.27;58.32;99197.63;5059559;28;45196;-61
2021/10/03 01:37:37;;;;;;;;;3.00;3.00;;;;;20.26;58.34;99190.59;5058738;28;47096;-57
2021/10/03 01:40:06;;;;;;;;;3.00;3.00;;;;;20.25;58.25;99181.72;5059116;28;45394;-49
2021/10/03 01:42:32;;;;;;;;;2.67;2.67;;;;;20.25;58.42;99184.38;5059283;28;45247;-58
2021/10/03 01:44:57;;;;;;;;;3.00;3.00;;;;;20.25;58.38;99187.03;5059532;28;45235;-52
2021/10/03 01:47:23;;;;;;;;;2.00;2.00;;;;;20.25;58.22;99180.84;5059019;28;46345;-52
2021/10/03 01:49:48;;;;;;;;;4.33;2.33;;;;;20.26;58.24;99163.91;5058949;28;45161;-61
2021/10/03 01:52:14;;;;;;;;;3.00;3.00;;;;;20.25;58.24;99171.03;5059072;28;45227;-52
2021/10/03 01:54:39;;;;;;;;;4.00;4.00;;;;;20.24;58.49;99166.63;5058344;28;45255;-55
2021/10/03 01:57:05;;;;;;;;;3.00;3.00;;;;;20.24;58.69;99169.28;5058937;28;46332;-53
2021/10/03 01:59:31;;;;;;;;;2.00;1.33;;;;;20.24;58.47;99158.63;5058770;28;45384;-59
2021/10/03 02:01:58;;;;;;;;;3.00;3.00;;;;;20.25;58.28;99162.16;5058872;28;45394;-61
2021/10/03 02:04:27;;;;;;;;;3.00;3.00;;;;;20.25;58.39;99156.81;5059061;28;45302;-58
2021/10/03 02:06:55;;;;;;;;;3.00;3.00;;;;;20.24;58.54;99139.94;5058685;28;46234;-60
2021/10/03 02:09:24;;;;;;;;;2.00;2.00;;;;;20.24;58.52;99134.59;5058633;28;45344;-53
2021/10/03 02:11:52;;;;;;;;;4.00;4.00;;;;;20.24;58.43;99115.94;5058785;28;45530;-58
2021/10/03 02:14:19;;;;;;;;;4.00;2.67;;;;;20.25;58.51;99114.13;5058746;28;45528;-54
2021/10/03 02:16:45;;;;;;;;;4.00;2.67;;;;;20.24;58.39;99112.41;5058440;28;47266;-55
2021/10/03 02:19:11;;;;;;;;;2.00;2.00;;;;;20.24;58.35;99102.59;5058478;28;45406;-57
2021/10/03 02:21:37;;;;;;;;;2.33;2.33;;;;;20.23;58.37;99090.22;5058880;28;45487;-60
2021/10/03 02:24:06;;;;;;;;;1.00;1.00;;;;;20.24;58.30;99107.09;5058704;28;45365;-60
2021/10/03 02:26:32;;;;;;;;;4.33;3.67;;;;;20.23;58.55;99092.00;5058172;28;47088;-58
2021/10/03 02:28:57;;;;;;;;;2.33;2.33;;;;;20.24;58.15;99091.06;5058408;28;45175;-53
2021/10/03 02:31:23;;;;;;;;;4.33;2.67;;;;;20.23;58.43;99084.00;5057969;28;45615;-49
2021/10/03 02:33:50;;;;;;;;;5.00;3.00;;;;;20.23;58.59;99084.88;5058599;28;45518;-57
2021/10/03 02:36:21;;;;;;;;;4.00;3.00;;;;;20.23;58.59;99079.53;5058286;28;46107;-52
2021/10/03 02:38:47;;;;;;;;;3.33;3.00;;;;;20.22;58.29;99077.78;5057897;28;45358;-52
2021/10/03 02:41:14;;;;;;;;;4.67;3.00;;;;;20.22;58.50;99093.78;5058492;28;45170;-55
2021/10/03 02:43:45;;;;;;;;;3.00;3.00;;;;;20.22;58.35;99080.47;5058503;28;45440;-49
2021/10/03 02:46:12;;;;;;;;;3.67;3.67;;;;;20.22;58.40;99067.13;5058043;28;46109;-60
2021/10/03 02:48:40;;;;;;;;;3.00;3.00;;;;;20.23;58.45;99073.31;5058057;28;45283;-52
2021/10/03 02:51:06;;;;;;;;;3.33;2.67;;;;;20.22;58.45;99067.13;5058122;28;45264;-52
2021/10/03 02:53:32;;;;;;;;;3.00;2.00;;;;;20.22;58.58;99061.78;5058101;28;45295;-54
2021/10/03 02:55:57;;;;;;;;;2.33;2.33;;;;;20.22;58.37;99056.44;5057773;28;46010;-57
2021/10/03 02:58:23;;;;;;;;;2.33;2.33;;;;;20.21;58.42;99054.75;5057889;28;45416;-53
2021/10/03 03:00:51;;;;;;;;;3.00;3.00;;;;;20.23;58.38;99046.66;5057960;28;45519;-52
2021/10/03 03:03:17;;;;;;;;;6.33;3.00;;;;;20.22;58.38;99051.13;5058156;28;45406;-53
2021/10/03 03:05:42;;;;;;;;;2.67;2.67;;;;;20.22;58.28;99050.28;5056655;28;46487;-59
2021/10/03 03:08:08;;;;;;;;;4.00;4.00;;;;;20.22;58.25;99040.44;5057613;28;45266;-57
2021/10/03 03:10:34;;;;;;;;;4.00;4.00;;;;;20.22;58.47;99036.94;5057942;28;45508;-52
2021/10/03 03:13:00;;;;;;;;;4.33;3.00;;;;;20.22;58.24;99039.59;5058180;28;45398;-55
2021/10/03 03:15:25;;;;;;;;;4.67;3.00;;;;;20.22;58.24;99039.59;5057538;28;46220;-60
2021/10/03 03:17:51;;;;;;;;;5.33;3.33;;;;;20.21;58.47;99036.06;5057641;28;45225;-58
2021/10/03 03:20:17;;;;;;;;;2.00;2.00;;;;;20.21;58.23;99033.41;5058032;28;45365;-57
2021/10/03 03:22:43;;;;;;;;;5.67;3.33;;;;;20.22;58.43;99034.25;5057894;28;45335;-51
2021/10/03 03:25:11;;;;;;;;;4.33;4.33;;;;;20.21;58.34;99022.72;5057142;28;46268;-53
2021/10/03 03:27:36;;;;;;;;;3.00;3.00;;;;;20.21;58.56;99011.19;5057704;28;45326;-56
2021/10/03 03:30:04;;;;;;;;;3.00;3.00;;;;;20.21;58.44;99009.38;5057748;28;45313;-54
2021/10/03 03:32:29;;;;;;;;;4.33;4.00;;;;;20.21;58.40;99012.06;5057532;28;45220;-53
2021/10/03 03:34:54;;;;;;;;;5.33;3.67;;;;;20.21;58.32;99011.19;5057569;28;46126;-51
2021/10/03 03:37:20;;;;;;;;;3.67;3.67;;;;;20.21;58.26;99006.72;5057370;28;45246;-59
2021/10/03 03:39:45;;;;;;;;;2.67;2.67;;;;;20.21;58.45;99012.06;5057367;28;45223;-60
2021/10/03 03:42:11;;;;;;;;;5.00;4.00;;;;;20.20;58.50;98994.31;5057953;28;45226;-55
2021/10/03 03:44:36;;;;;;;;;4.00;3.00;;;;;20.20;58.30;98999.63;5057415;28;46137;-57
2021/10/03 03:47:02;;;;;;;;;3.33;3.00;;;;;20.21;58.37;99011.19;5057325;28;45387;-54
2021/10/03 03:49:28;;;;;;;;;3.00;3.00;;;;;20.20;58.43;99012.13;5057399;28;45304;-52
2021/10/03 03:51:54;;;;;;;;;4.67;3.67;;;;;20.20;58.49;99010.31;5057605;28;45452;-56
2021/10/03 03:54:19;;;;;;;;;3.00;3.00;;;;;20.21;58.29;99021.84;5057081;28;46049;-56
2021/10/03 03:56:45;;;;;;;;;3.00;3.00;;;;;20.20;58.29;99017.47;5057157;28;45386;-54
2021/10/03 03:59:10;;;;;;;;;4.00;4.00;;;;;20.20;58.43;99020.13;5057438;28;45822;-57
2021/10/03 04:01:36;;;;;;;;;4.00;4.00;;;;;20.20;58.54;99018.31;5057388;28;45306;-59
2021/10/03 04:04:01;;;;;;;;;6.00;4.33;;;;;20.21;58.14;99016.50;5057176;28;45450;-52
2021/10/03 04:06:27;;;;;;;;;5.00;5.00;;;;;20.20;58.14;99020.97;5057096;28;45438;-53
2021/10/03 04:08:52;;;;;;;;;5.33;5.33;;;;;20.20;58.33;99026.31;5057152;28;45450;-52
2021/10/03 04:11:18;;;;;;;;;3.00;3.00;;;;;20.20;58.39;99020.13;5057559;28;45439;-59
2021/10/03 04:13:44;;;;;;;;;4.67;4.67;;;;;20.20;58.33;99025.47;5056989;28;47424;-57
2021/10/03 04:16:09;;;;;;;;;4.33;4.33;;;;;20.20;58.32;99018.31;5056981;28;45200;-61
2021/10/03 04:18:35;;;;;;;;;4.67;3.67;;;;;20.19;58.27;99008.59;5059549;28;45327;-57
2021/10/03 04:21:01;;;;;;;;;4.33;4.00;;;;;20.20;58.39;99025.47;5060751;28;45354;-55
2021/10/03 04:23:26;;;;;;;;;5.00;4.00;;;;;20.19;58.19;99016.59;5060396;28;46307;-50
2021/10/03 04:25:52;;;;;;;;;5.00;5.00;;;;;20.19;58.31;99021.94;5060176;28;45300;-56
2021/10/03 04:28:17;;;;;;;;;4.33;4.33;;;;;20.20;58.32;99030.81;5060543;28;45369;-55
2021/10/03 04:30:43;;;;;;;;;5.67;5.00;;;;;20.20;58.33;99031.66;5060585;28;45248;-55
2021/10/03 04:33:09;;;;;;;;;5.33;3.00;;;;;20.20;58.38;99042.31;5059944;28;46250;-55
2021/10/03 04:35:34;;;;;;;;;5.00;5.00;;;;;20.20;58.32;99020.13;5060050;28;45288;-58
2021/10/03 04:38:00;;;;;;;;;3.33;3.33;;;;;20.19;58.40;99026.41;5060088;28;45436;-53
2021/10/03 04:40:25;;;;;;;;;5.67;4.67;;;;;20.20;58.47;99020.97;5060314;28;45387;-53
2021/10/03 04:42:51;;;;;;;;;5.00;4.00;;;;;20.19;58.24;99016.59;5060144;28;46942;-50
2021/10/03 04:45:16;;;;;;;;;3.00;3.00;;;;;20.20;58.32;99012.13;5060016;28;45426;-52
2021/10/03 04:47:45;;;;;;;;;4.00;3.00;;;;;20.19;58.39;99016.59;5060264;28;45237;-56
2021/10/03 04:50:12;;;;;;;;;4.33;4.00;;;;;20.19;58.28;99018.41;5060489;28;45233;-48
2021/10/03 04:52:41;;;;;;;;;5.00;5.00;;;;;20.19;58.40;99008.59;5059713;28;45259;-54
2021/10/03 04:55:09;;;;;;;;;5.33;5.00;;;;;20.19;58.44;98991.72;5059732;28;45326;-58
2021/10/03 04:57:35;;;;;;;;;4.00;4.00;;;;;20.19;58.46;99008.59;5059733;28;45335;-56
2021/10/03 05:00:01;;;;;;;;;4.00;4.00;;;;;20.19;58.47;99003.25;5060169;28;45161;-57
2021/10/03 05:02:26;;;;;;;;;5.00;5.00;;;;;20.18;58.36;98996.19;5059478;28;45426;-58
2021/10/03 05:04:51;;;;;;;;;5.67;5.00;;;;;20.19;58.42;98989.91;5059869;28;45492;-58
2021/10/03 05:07:17;;;;;;;;;5.00;5.00;;;;;20.19;58.25;99051.28;5059999;28;45420;-63
2021/10/03 05:09:42;;;;;;;;;4.00;4.00;;;;;20.19;58.20;99075.28;5059871;28;45436;-55
2021/10/03 05:12:08;;;;;;;;;5.00;4.67;;;;;20.19;58.32;99037.94;5059566;28;46189;-56
2021/10/03 05:14:34;;;;;;;;;4.00;4.00;;;;;20.18;58.46;99092.22;5059418;28;45319;-56
2021/10/03 05:16:59;;;;;;;;;6.67;6.67;;;;;20.19;58.49;99067.28;5059730;28;45259;-57
2021/10/03 05:19:24;;;;;;;;;3.00;3.00;;;;;20.19;58.32;99077.97;5059818;28;45441;-54
2021/10/03 05:21:50;;;;;;;;;4.67;4.67;;;;;20.19;58.31;99064.63;5059539;28;47147;-57
2021/10/03 05:24:15;;;;;;;;;6.00;6.00;;;;;20.19;58.32;99093.97;5059489;28;45420;-62
2021/10/03 05:26:41;;;;;;;;;6.00;4.67;;;;;20.19;58.46;99114.44;5059327;28;45420;-49
2021/10/03 05:29:07;;;;;;;;;5.00;4.00;;;;;20.19;58.25;99080.63;5058702;28;45334;-52
2021/10/03 05:31:32;;;;;;;;;5.00;5.00;;;;;20.19;58.39;99077.09;5059038;28;47232;-59
2021/10/03 05:33:57;;;;;;;;;5.00;4.00;;;;;20.19;58.44;99082.41;5059403;28;45481;-58
2021/10/03 05:36:24;;;;;;;;;5.00;5.00;;;;;20.18;58.29;99118.91;5059350;28;45446;-54
2021/10/03 05:38:50;;;;;;;;;4.33;4.33;;;;;20.18;58.29;99132.25;5059484;28;45397;-58
2021/10/03 05:41:15;;;;;;;;;6.67;4.33;;;;;20.19;58.36;99115.31;5058900;28;46004;-51
2021/10/03 05:43:41;;;;;;;;;4.00;4.00;;;;;20.18;58.20;99110.91;5059218;28;45234;-64
2021/10/03 05:46:07;;;;;;;;;4.00;4.00;;;;;20.19;58.33;99138.44;5059177;28;45291;-56
2021/10/03 05:48:33;;;;;;;;;5.67;5.67;;;;;20.18;58.40;99148.25;5059384;28;45311;-57
2021/10/03 05:51:00;;;;;;;;;5.67;4.00;;;;;20.19;58.24;99138.44;5058950;28;47165;-55
2021/10/03 05:53:25;;;;;;;;;6.00;3.33;;;;;20.19;58.34;99155.31;5059055;28;45338;-59
2021/10/03 05:55:51;;;;;;;;;6.00;5.33;;;;;20.19;58.17;99167.78;5058910;28;45510;-57
2021/10/03 05:58:16;;;;;;;;;5.00;5.00;;;;;20.19;58.35;99176.66;5059251;28;45302;-57
2021/10/03 06:00:41;;;;;;;;;4.00;4.00;;;;;20.19;58.26;99178.47;5058803;28;46026;-54
2021/10/03 06:03:07;;;;;;;;;5.00;4.00;;;;;20.18;58.29;99190.94;5058840;28;45181;-58
2021/10/03 06:05:32;;;;;;;;;4.33;4.33;;;;;20.19;58.24;99197.13;5059033;28;45296;-54
2021/10/03 06:07:58;;;;;;;;;3.33;3.33;;;;;20.18;58.41;99166.91;5059056;28;45397;-60
2021/10/03 06:10:24;;;;;;;;;7.00;5.00;;;;;20.19;58.39;99168.66;5058559;28;46316;-58
2021/10/03 06:12:50;;;;;;;;;5.00;4.00;;;;;20.19;58.24;99162.44;5058692;28;45405;-52
2021/10/03 06:15:16;;;;;;;;;4.67;4.67;;;;;20.19;58.27;99176.66;5059026;28;45211;-59
2021/10/03 06:17:41;;;;;;;;;3.67;3.00;;;;;20.18;58.22;99182.09;5058905;28;45203;-58
2021/10/03 06:20:07;;;;;;;;;4.00;3.00;;;;;20.18;58.16;99193.59;5058470;28;46236;-64
2021/10/03 06:22:33;;;;;;;;;6.00;5.00;;;;;20.18;58.06;99179.41;5058453;28;45319;-59
2021/10/03 06:24:58;;;;;;;;;3.00;3.00;;;;;20.19;58.34;99183.78;5058532;28;45444;-51
2021/10/03 06:27:24;;;;;;;;;2.33;2.33;;;;;20.18;58.31;99182.94;5058640;28;45474;-50
2021/10/03 06:29:52;;;;;;;;;4.00;4.00;;;;;20.19;58.18;99191.81;5058488;28;45337;-52
2021/10/03 06:32:17;;;;;;;;;3.00;3.00;;;;;20.18;58.28;99203.44;5058042;28;45235;-50
2021/10/03 06:34:42;;;;;;;;;3.67;3.67;;;;;20.19;58.16;99194.47;5058492;28;45304;-53
2021/10/03 06:37:08;;;;;;;;;3.67;3.00;;;;;20.19;58.18;99183.78;5058738;28;45227;-52
2021/10/03 06:39:33;;;;;;;;;4.00;4.00;;;;;20.19;58.20;99162.44;5058110;28;46395;-52
2021/10/03 06:41:59;;;;;;;;;6.00;5.00;;;;;20.19;58.01;99176.66;5058020;28;45207;-50
2021/10/03 06:44:24;;;;;;;;;3.00;3.00;;;;;20.18;58.03;99198.94;5058247;28;45218;-49
2021/10/03 06:46:50;;;;;;;;;3.67;2.67;;;;;20.19;58.24;99194.47;5058570;28;45367;-54
2021/10/03 06:49:16;;;;;;;;;4.00;4.00;;;;;20.18;58.08;99182.94;5058089;28;46250;-51
2021/10/03 06:51:43;;;;;;;;;5.00;3.00;;;;;20.17;58.26;99135.84;5058210;28;45229;-54
2021/10/03 06:54:10;;;;;;;;;2.33;2.33;;;;;20.17;58.08;99130.53;5058250;28;45482;-50
2021/10/03 06:56:36;;;;;;;;;4.00;4.00;;;;;20.18;58.15;99145.56;5058222;28;45527;-60
2021/10/03 06:59:01;;;;;;;;;3.33;3.33;;;;;20.18;58.09;99168.75;5057643;28;46265;-54
2021/10/03 07:01:27;;;;;;;;;3.00;3.00;;;;;20.18;58.16;99188.25;5057835;28;45331;-58
2021/10/03 07:03:52;;;;;;;;;2.33;2.33;;;;;20.18;58.11;99195.41;5057919;28;45346;-49
2021/10/03 07:06:18;;;;;;;;;3.33;3.00;;;;;20.18;58.08;99219.44;5058131;28;45393;-55
2021/10/03 07:08:43;;;;;;;;;3.67;3.67;;;;;20.18;58.06;99230.09;5057971;28;45248;-52
2021/10/03 07:11:09;;;;;;;;;3.33;3.00;;;;;20.18;58.25;99224.75;5057746;28;45206;-61
2021/10/03 07:13:34;;;;;;;;;3.33;3.33;;;;;20.18;58.28;99225.59;5057837;28;45195;-57
2021/10/03 07:16:00;;;;;;;;;3.00;3.00;;;;;20.18;58.07;99244.28;5058078;28;45451;-54
2021/10/03 07:18:25;;;;;;;;;4.67;4.00;;;;;20.18;58.08;99240.78;5057451;28;46269;-53
2021/10/03 07:20:51;;;;;;;;;3.00;3.00;;;;;20.18;58.14;99238.09;5056850;28;45464;-54
2021/10/03 07:23:17;;;;;;;;;3.00;3.00;;;;;20.18;58.34;99230.94;5057601;28;45205;-56
2021/10/03 07:25:42;;;;;;;;;2.00;2.00;;;;;20.18;58.32;99236.28;5057708;28;45473;-52
2021/10/03 07:28:08;;;;;;;;;2.67;2.67;;;;;20.17;58.49;99229.22;5057223;28;45719;-56
2021/10/03 07:30:34;;;;;;;;;3.00;3.00;;;;;20.18;58.99;99241.63;5057098;28;45333;-50
2021/10/03 07:32:59;;;;;;;;;2.67;2.00;;;;;20.21;59.20;99228.16;5057139;28;45338;-54
2021/10/03 07:35:25;;;;;;;;;5.00;2.00;;;;;20.22;59.49;99229.88;5057659;28;45417;-65
2021/10/03 07:37:50;;;;;;;;;1.00;1.00;;;;;20.23;59.53;99231.59;5057298;28;45935;-58
2021/10/03 07:40:16;;;;;;;;;3.00;1.00;;;;;20.25;59.70;99232.41;5057238;28;45369;-59
2021/10/03 07:42:42;;;;;;;;;2.00;2.00;;;;;20.26;59.80;99235.94;5057382;28;45232;-60
2021/10/03 07:45:08;;;;;;;;;2.00;2.00;;;;;20.27;59.84;99245.66;5057458;28;45259;-58
2021/10/03 07:47:33;;;;;;;;;1.33;1.33;;;;;20.28;60.09;99247.41;5057427;28;46478;-60
2021/10/03 07:49:59;;;;;;;;;0.67;0.67;;;;;20.29;60.20;99259.78;5057080;28;45253;-60
2021/10/03 07:52:24;;;;;;;;;2.00;2.00;;;;;20.30;60.30;99260.66;5058223;28;45731;-68
2021/10/03 07:54:50;;;;;;;;;0.33;0.33;;;;;20.31;60.39;99265.06;5061362;28;45231;-54
2021/10/03 07:57:16;;;;;;;;;1.67;1.67;;;;;20.31;60.42;99257.03;5060194;28;46154;-64
2021/10/03 07:59:42;;;;;;;;;1.00;1.00;;;;;20.32;60.59;99259.66;5060457;28;45250;-54
2021/10/03 08:02:07;;;;;;;;;1.33;0.67;;;;;20.34;60.49;99262.25;5060369;28;45388;-67
2021/10/03 08:04:32;;;;;;;;;1.00;1.00;;;;;20.34;60.30;99268.47;5061026;28;45248;-65
2021/10/03 08:06:58;;;;;;;;;1.67;1.00;;;;;20.35;60.58;99263.97;5060553;28;47092;-57
2021/10/03 08:09:23;;;;;;;;;1.67;0.00;;;;;;;;5060600;28;45414;-60
2021/10/03 08:11:48;;;;;;;;;2.67;1.00;;;;;20.38;60.29;99295.00;5060586;28;45362;-63
2021/10/03 08:14:14;;;;;;;;;2.67;1.00;;;;;20.40;60.52;99271.75;5060688;28;45325;-57
2021/10/03 08:16:40;;;;;;;;;3.00;1.00;;;;;20.43;60.60;99279.66;5060273;28;46466;-59
2021/10/03 08:19:05;;;;;;;;;1.00;1.00;;;;;20.43;59.61;99299.16;5060380;28;45428;-57
2021/10/03 08:21:31;;;;;;;;;1.00;1.00;;;;;20.45;59.65;99299.13;5060413;28;45451;-52
2021/10/03 08:23:56;;;;;;;;;2.00;2.00;;;;;20.45;59.54;99299.13;5060553;28;45362;-60
2021/10/03 08:26:23;;;;;;;;;1.33;1.00;;;;;20.45;59.58;99307.13;5060005;28;46300;-52
2021/10/03 08:28:48;;;;;;;;;3.67;1.33;;;;;20.45;59.51;99313.31;5060323;28;45215;-58
2021/10/03 08:31:14;;;;;;;;;1.33;1.00;;;;;20.45;59.74;99301.78;5060158;28;45311;-53
2021/10/03 08:33:40;;;;;;;;;0.00;0.00;;;;;20.43;59.78;99304.50;5060358;28;45504;-51
2021/10/03 08:36:05;;;;;;;;;1.67;1.67;;;;;20.44;59.79;99298.25;5060176;28;46854;-48
2021/10/03 08:38:31;;;;;;;;;2.00;2.00;;;;;20.43;59.82;99293.84;5059785;28;45234;-54
2021/10/03 08:40:57;;;;;;;;;2.33;2.33;;;;;20.43;60.03;99307.19;5060182;28;45204;-56
2021/10/03 08:43:22;;;;;;;;;1.00;1.00;;;;;20.41;59.80;99306.38;5060477;28;45375;-54
2021/10/03 08:45:49;;;;;;;;;2.00;1.00;;;;;20.42;59.80;99308.13;5060045;28;46118;-54
2021/10/03 08:48:16;;;;;;;;;3.00;2.00;;;;;20.41;59.89;99324.22;5060025;28;45287;-48
2021/10/03 08:50:45;;;;;;;;;2.00;1.33;;;;;20.40;59.77;99336.69;5059853;28;45295;-49
2021/10/03 08:53:11;;;;;;;;;1.00;1.00;;;;;20.39;59.60;99342.94;5059416;28;45324;-49
2021/10/03 08:55:36;;;;;;;;;1.33;1.00;;;;;20.40;59.46;99350.03;5058340;28;45368;-52
2021/10/03 08:58:03;;;;;;;;;1.00;1.00;;;;;20.39;59.44;99350.13;5059174;28;45525;-47
2021/10/03 09:00:28;;;;;;;;;2.33;1.00;;;;;20.38;59.21;99348.38;5058869;28;45474;-46
2021/10/03 09:03:04;;;;;;;;;3.00;2.00;;;;;20.38;59.32;99356.38;5059079;28;45271;-47
2021/10/03 09:05:36;;;;;;;;;1.00;1.00;;;;;20.38;59.49;99359.91;5059669;28;47261;-49
2021/10/03 09:08:16;;;;;;;;;1.00;1.00;;;;;20.39;59.42;99361.63;5059566;28;45241;-50
2021/10/03 09:10:57;;;;;;;;;1.00;1.00;;;;;20.38;59.56;99365.25;5059647;28;45455;-46
2021/10/03 09:13:32;;;;;;;;;1.33;1.33;;;;;20.39;59.72;99368.78;5059482;28;45454;-52
2021/10/03 09:16:06;;;;;;;;;1.00;1.00;;;;;20.39;59.53;99374.13;5059511;28;45295;-48
2021/10/03 09:18:35;;;;;;;;;1.67;1.33;;;;;20.39;59.57;99371.47;5059211;28;45250;-52
2021/10/03 09:21:00;;;;;;;;;3.00;1.67;;;;;20.39;59.84;99382.13;5059452;28;45299;-53
2021/10/03 09:23:26;;;;;;;;;3.67;3.00;;;;;20.38;60.63;99375.94;5059491;28;45314;-48
2021/10/03 09:25:52;;;;;;;;;1.00;1.00;;;;;20.39;60.71;99388.31;5058948;28;47338;-51
2021/10/03 09:28:20;;;;;;;;;1.00;1.00;;;;;20.39;60.58;99393.66;5059140;28;45330;-45
2021/10/03 09:31:08;;;;;;;;;5.33;3.00;;;;;20.38;61.29;99399.94;5059721;28;45247;-48
2021/10/03 09:33:45;;;;;;;;;2.33;1.00;;;;;20.40;61.57;99403.41;5059444;28;45299;-51
2021/10/03 09:36:13;;;;;;;;;3.00;1.33;;;;;20.39;61.90;99431.00;5059096;28;46545;-49
2021/10/03 09:38:47;;;;;;;;;1.33;1.00;;;;;20.40;61.85;99478.13;5058651;28;45370;-51
2021/10/03 09:41:14;;;;;;;;;4.00;2.00;;;;;20.41;62.08;99514.56;5059176;28;45444;-58
2021/10/03 09:43:54;;;;;;;;;3.00;1.67;;;;;20.43;62.42;99542.03;5059339;28;45620;-53
2021/10/03 09:46:39;;;;;;;;;5.00;2.00;;;;;20.43;62.40;99566.06;5058697;28;47104;-63
2021/10/03 09:49:15;;;;;;;;;5.00;2.33;;;;;20.43;62.73;99592.75;5058458;28;45379;-52
2021/10/03 09:51:45;;;;;;;;;6.33;2.00;;;;;20.45;62.43;99603.38;5038648;28;45419;-61
2021/10/03 09:54:11;;;;;;;;;3.00;2.67;;;;;20.45;62.33;99625.59;5039176;28;45347;-51
2021/10/03 09:56:37;;;;;;;;;5.00;2.00;;;;;20.45;62.35;99628.25;5038280;28;46256;-60
2021/10/03 09:59:04;;;;;;;;;1.67;1.00;;;;;20.45;62.65;99628.25;5038850;28;45366;-50
2021/10/03 10:01:35;;;;;;;;;2.00;2.00;;;;;20.45;62.34;99633.59;5038621;28;45355;-46
2021/10/03 10:04:06;;;;;;;;;1.67;1.00;;;;;20.46;62.61;99656.69;5039078;28;45371;-58
2021/10/03 10:06:33;;;;;;;;;2.00;1.00;;;;;20.46;62.36;99667.38;5038335;28;46584;-63
2021/10/03 10:09:03;;;;;;;;;2.33;2.00;;;;;20.46;62.35;99678.06;5038482;28;45295;-50
2021/10/03 10:11:40;;;;;;;;;1.00;1.00;;;;;20.47;62.04;99697.63;5038395;28;45280;-58
2021/10/03 10:14:07;;;;;;;;;6.00;1.00;;;;;20.47;61.54;99749.19;5038534;28;45530;-58
2021/10/03 10:16:41;;;;;;;;;1.00;1.00;;;;;20.48;61.13;99753.59;5037669;28;46221;-51
2021/10/03 10:19:29;;;;;;;;;2.00;0.67;;;;;20.48;60.60;99766.97;5038102;28;45366;-47
2021/10/03 10:22:15;;;;;;;;;2.00;0.67;;;;;20.49;60.60;99765.16;5038372;28;45161;-54
2021/10/03 10:24:46;;;;;;;;;1.67;1.00;;;;;20.49;60.36;99749.16;5038500;28;45425;-57
2021/10/03 10:27:20;;;;;;;;;1.00;1.00;;;;;20.49;60.09;99762.50;5038059;28;46343;-50
2021/10/03 10:30:10;;;;;;;;;1.00;1.00;;;;;20.48;60.12;99790.97;5038290;28;45239;-55
2021/10/03 10:32:54;;;;;;;;;1.00;1.00;;;;;20.49;59.92;99837.25;5037907;28;45432;-56
2021/10/03 10:35:20;;;;;;;;;0.33;0.33;;;;;20.50;59.84;99832.75;5038180;28;45488;-54
2021/10/03 10:37:49;;;;;;;;;1.00;1.00;;;;;20.48;59.83;99823.00;5037787;28;46298;-61
2021/10/03 10:40:20;;;;;;;;;1.00;1.00;;;;;20.48;59.78;99820.34;5037728;28;45308;-57
2021/10/03 10:42:47;;;;;;;;;2.67;2.33;;;;;20.49;59.77;99837.25;5038147;28;45418;-60
2021/10/03 10:45:27;;;;;;;;;2.00;1.00;;;;;20.48;59.81;99852.38;5038127;28;45460;-53
2021/10/03 10:48:08;;;;;;;;;1.67;1.67;;;;;20.50;59.66;99868.31;5037456;28;47163;-49
2021/10/03 10:50:37;;;;;;;;;1.33;1.00;;;;;20.50;59.68;99880.78;5037762;28;45399;-58
2021/10/03 10:53:23;;;;;;;;;1.00;0.67;;;;;20.50;59.57;99910.16;5038087;28;45447;-49
2021/10/03 10:56:08;;;;;;;;;2.00;1.00;;;;;20.50;59.57;99918.16;5037984;28;45203;-57
2021/10/03 10:58:58;;;;;;;;;1.00;0.00;;;;;20.49;59.42;99928.00;5037638;28;45364;-59
2021/10/03 11:01:29;;;;;;;;;2.00;1.00;;;;;20.49;59.51;99922.66;5037339;28;45407;-59
2021/10/03 11:03:55;;;;;;;;;0.00;0.00;;;;;20.48;59.49;99911.09;5037609;28;45209;-60
2021/10/03 11:06:20;;;;;;;;;3.00;1.00;;;;;20.48;59.43;99895.09;5037516;28;45159;-52
2021/10/03 11:09:00;;;;;;;;;1.00;1.00;;;;;20.48;59.50;99900.44;5037378;28;46441;-52
2021/10/03 11:11:30;;;;;;;;;3.33;1.00;;;;;20.48;59.26;99899.56;5037570;28;45315;-65
2021/10/03 11:13:58;;;;;;;;;0.67;0.67;;;;;20.47;59.36;99904.00;5037416;28;45353;-59
2021/10/03 11:16:25;;;;;;;;;0.00;0.00;;;;;20.48;59.44;99937.81;5037682;28;45418;-48
2021/10/03 11:18:56;;;;;;;;;0.00;0.00;;;;;20.47;59.24;99933.38;5037262;28;46463;-52
2021/10/03 11:21:40;;;;;;;;;1.00;0.00;;;;;20.47;59.18;99946.72;5037281;28;45216;-49
2021/10/03 11:24:08;;;;;;;;;1.00;1.00;;;;;20.46;59.06;99966.34;5037289;28;45354;-52
2021/10/03 11:26:53;;;;;;;;;2.00;0.00;;;;;20.47;59.31;99983.25;5037315;28;45316;-59
2021/10/03 11:29:21;;;;;;;;;1.33;1.00;;;;;20.46;59.45;99995.72;5040841;28;47020;-59
2021/10/03 11:31:50;;;;;;;;;0.67;0.33;;;;;20.48;59.49;100001.00;5040856;28;45350;-47
2021/10/03 11:34:35;;;;;;;;;0.67;0.33;;;;;20.51;59.63;100013.38;5040665;28;45177;-62
2021/10/03 11:37:04;;;;;;;;;2.00;0.67;;;;;20.50;59.26;100019.63;5041173;28;45368;-65